sensor_id;sensor_type;location;lat;lon;timestamp;P1;durP1;ratioP1;P2;durP2;ratioP2
46551;SDS011;32278;51.810;4.712;2023-04-03T00:01:02;7.78;;;1.70;;
46551;SDS011;32278;51.810;4.712;2023-04-03T00:03:28;6.75;;;1.40;;
46551;SDS011;32278;51.810;4.712;2023-04-03T00:05:54;3.08;;;1.45;;
46551;SDS011;32278;51.810;4.712;2023-04-03T00:08:20;2.15;;;1.20;;
46551;SDS011;32278;51.810;4.712;2023-04-03T00:10:46;3.45;;;1.10;;
46551;SDS011;32278;51.810;4.712;2023-04-03T00:13:12;3.50;;;1.38;;
46551;SDS011;32278;51.810;4.712;2023-04-03T00:15:39;7.45;;;1.58;;
46551;SDS011;32278;51.810;4.712;2023-04-03T00:18:05;2.90;;;1.45;;
46551;SDS011;32278;51.810;4.712;2023-04-03T00:20:31;5.75;;;1.67;;
46551;SDS011;32278;51.810;4.712;2023-04-03T00:22:58;2.28;;;1.20;;
46551;SDS011;32278;51.810;4.712;2023-04-03T00:25:24;4.82;;;1.50;;
46551;SDS011;32278;51.810;4.712;2023-04-03T00:27:50;2.20;;;1.40;;
46551;SDS011;32278;51.810;4.712;2023-04-03T00:30:17;5.43;;;1.30;;
46551;SDS011;32278;51.810;4.712;2023-04-03T00:32:43;3.60;;;1.08;;
46551;SDS011;32278;51.810;4.712;2023-04-03T00:35:10;2.28;;;0.90;;
46551;SDS011;32278;51.810;4.712;2023-04-03T00:37:36;2.35;;;1.23;;
46551;SDS011;32278;51.810;4.712;2023-04-03T00:40:02;3.13;;;1.45;;
46551;SDS011;32278;51.810;4.712;2023-04-03T00:42:29;4.00;;;1.63;;
46551;SDS011;32278;51.810;4.712;2023-04-03T00:47:21;3.28;;;1.55;;
46551;SDS011;32278;51.810;4.712;2023-04-03T00:49:47;1.80;;;0.93;;
46551;SDS011;32278;51.810;4.712;2023-04-03T00:52:13;2.45;;;1.00;;
46551;SDS011;32278;51.810;4.712;2023-04-03T00:54:41;4.22;;;1.42;;
46551;SDS011;32278;51.810;4.712;2023-04-03T00:57:08;2.33;;;1.08;;
46551;SDS011;32278;51.810;4.712;2023-04-03T00:59:35;3.50;;;2.33;;
46551;SDS011;32278;51.810;4.712;2023-04-03T01:02:04;3.97;;;1.67;;
46551;SDS011;32278;51.810;4.712;2023-04-03T01:06:56;2.60;;;1.20;;
46551;SDS011;32278;51.810;4.712;2023-04-03T01:09:23;6.80;;;1.70;;
46551;SDS011;32278;51.810;4.712;2023-04-03T01:11:48;2.58;;;1.17;;
46551;SDS011;32278;51.810;4.712;2023-04-03T01:14:14;4.18;;;1.33;;
46551;SDS011;32278;51.810;4.712;2023-04-03T01:16:40;3.38;;;1.50;;
46551;SDS011;32278;51.810;4.712;2023-04-03T01:19:07;4.63;;;1.52;;
46551;SDS011;32278;51.810;4.712;2023-04-03T01:26:43;4.55;;;1.67;;
46551;SDS011;32278;51.810;4.712;2023-04-03T01:29:09;6.32;;;1.50;;
46551;SDS011;32278;51.810;4.712;2023-04-03T01:31:52;8.13;;;1.33;;
46551;SDS011;32278;51.810;4.712;2023-04-03T01:34:19;5.03;;;1.40;;
46551;SDS011;32278;51.810;4.712;2023-04-03T01:36:45;3.70;;;1.67;;
46551;SDS011;32278;51.810;4.712;2023-04-03T01:39:11;3.30;;;1.15;;
46551;SDS011;32278;51.810;4.712;2023-04-03T01:41:37;2.40;;;1.30;;
46551;SDS011;32278;51.810;4.712;2023-04-03T01:44:03;4.50;;;1.20;;
46551;SDS011;32278;51.810;4.712;2023-04-03T01:46:29;5.05;;;1.83;;
46551;SDS011;32278;51.810;4.712;2023-04-03T01:48:55;4.40;;;1.52;;
46551;SDS011;32278;51.810;4.712;2023-04-03T01:51:21;2.47;;;1.17;;
46551;SDS011;32278;51.810;4.712;2023-04-03T01:53:47;3.80;;;1.50;;
46551;SDS011;32278;51.810;4.712;2023-04-03T01:56:13;7.65;;;1.20;;
46551;SDS011;32278;51.810;4.712;2023-04-03T01:58:39;2.58;;;1.70;;
46551;SDS011;32278;51.810;4.712;2023-04-03T02:01:05;1.73;;;1.25;;
46551;SDS011;32278;51.810;4.712;2023-04-03T02:03:31;2.80;;;1.50;;
46551;SDS011;32278;51.810;4.712;2023-04-03T02:05:57;8.23;;;2.55;;
46551;SDS011;32278;51.810;4.712;2023-04-03T02:08:23;5.85;;;1.70;;
46551;SDS011;32278;51.810;4.712;2023-04-03T02:10:50;3.85;;;1.38;;
46551;SDS011;32278;51.810;4.712;2023-04-03T02:13:16;4.55;;;2.03;;
46551;SDS011;32278;51.810;4.712;2023-04-03T02:15:42;3.97;;;1.60;;
46551;SDS011;32278;51.810;4.712;2023-04-03T02:18:08;3.00;;;1.85;;
46551;SDS011;32278;51.810;4.712;2023-04-03T02:20:35;2.55;;;2.00;;
46551;SDS011;32278;51.810;4.712;2023-04-03T02:23:01;2.85;;;1.67;;
46551;SDS011;32278;51.810;4.712;2023-04-03T02:25:27;5.00;;;2.00;;
46551;SDS011;32278;51.810;4.712;2023-04-03T02:27:53;4.10;;;1.55;;
46551;SDS011;32278;51.810;4.712;2023-04-03T02:30:19;4.53;;;2.67;;
46551;SDS011;32278;51.810;4.712;2023-04-03T02:32:45;3.45;;;1.75;;
46551;SDS011;32278;51.810;4.712;2023-04-03T02:35:11;3.50;;;1.90;;
46551;SDS011;32278;51.810;4.712;2023-04-03T02:37:37;2.65;;;1.40;;
46551;SDS011;32278;51.810;4.712;2023-04-03T02:40:04;3.45;;;1.60;;
46551;SDS011;32278;51.810;4.712;2023-04-03T02:42:30;2.80;;;1.63;;
46551;SDS011;32278;51.810;4.712;2023-04-03T02:44:56;6.18;;;2.75;;
46551;SDS011;32278;51.810;4.712;2023-04-03T02:47:22;6.32;;;1.60;;
46551;SDS011;32278;51.810;4.712;2023-04-03T02:49:48;3.13;;;1.73;;
46551;SDS011;32278;51.810;4.712;2023-04-03T02:52:14;4.03;;;1.60;;
46551;SDS011;32278;51.810;4.712;2023-04-03T02:54:40;6.78;;;2.40;;
46551;SDS011;32278;51.810;4.712;2023-04-03T02:57:06;2.97;;;1.63;;
46551;SDS011;32278;51.810;4.712;2023-04-03T02:59:34;3.53;;;1.58;;
46551;SDS011;32278;51.810;4.712;2023-04-03T03:02:00;4.50;;;1.98;;
46551;SDS011;32278;51.810;4.712;2023-04-03T03:04:26;2.95;;;1.77;;
46551;SDS011;32278;51.810;4.712;2023-04-03T03:06:52;2.45;;;1.40;;
46551;SDS011;32278;51.810;4.712;2023-04-03T03:09:17;4.13;;;1.85;;
46551;SDS011;32278;51.810;4.712;2023-04-03T03:11:43;1.67;;;1.50;;
46551;SDS011;32278;51.810;4.712;2023-04-03T03:14:09;9.35;;;2.17;;
46551;SDS011;32278;51.810;4.712;2023-04-03T03:16:35;2.47;;;1.85;;
46551;SDS011;32278;51.810;4.712;2023-04-03T03:19:01;3.53;;;1.95;;
46551;SDS011;32278;51.810;4.712;2023-04-03T03:21:28;3.38;;;1.80;;
46551;SDS011;32278;51.810;4.712;2023-04-03T03:23:54;4.57;;;1.80;;
46551;SDS011;32278;51.810;4.712;2023-04-03T03:26:20;4.60;;;1.92;;
46551;SDS011;32278;51.810;4.712;2023-04-03T03:28:46;9.55;;;2.10;;
46551;SDS011;32278;51.810;4.712;2023-04-03T03:31:12;3.20;;;2.03;;
46551;SDS011;32278;51.810;4.712;2023-04-03T03:33:38;2.95;;;1.63;;
46551;SDS011;32278;51.810;4.712;2023-04-03T03:36:04;3.65;;;1.83;;
46551;SDS011;32278;51.810;4.712;2023-04-03T03:38:30;2.75;;;1.73;;
46551;SDS011;32278;51.810;4.712;2023-04-03T03:40:57;2.85;;;1.73;;
46551;SDS011;32278;51.810;4.712;2023-04-03T03:43:23;3.97;;;1.98;;
46551;SDS011;32278;51.810;4.712;2023-04-03T03:45:50;6.47;;;2.30;;
46551;SDS011;32278;51.810;4.712;2023-04-03T03:48:17;3.85;;;2.13;;
46551;SDS011;32278;51.810;4.712;2023-04-03T03:50:43;5.05;;;1.85;;
46551;SDS011;32278;51.810;4.712;2023-04-03T03:53:09;3.03;;;1.90;;
46551;SDS011;32278;51.810;4.712;2023-04-03T03:55:35;6.18;;;1.92;;
46551;SDS011;32278;51.810;4.712;2023-04-03T03:58:01;9.20;;;2.05;;
46551;SDS011;32278;51.810;4.712;2023-04-03T04:00:27;5.25;;;1.85;;
46551;SDS011;32278;51.810;4.712;2023-04-03T04:02:53;7.68;;;1.85;;
46551;SDS011;32278;51.810;4.712;2023-04-03T04:05:19;3.55;;;2.10;;
46551;SDS011;32278;51.810;4.712;2023-04-03T04:07:45;3.03;;;1.80;;
46551;SDS011;32278;51.810;4.712;2023-04-03T04:10:11;5.80;;;2.35;;
46551;SDS011;32278;51.810;4.712;2023-04-03T04:12:38;6.00;;;2.33;;
46551;SDS011;32278;51.810;4.712;2023-04-03T04:15:04;9.32;;;2.25;;
46551;SDS011;32278;51.810;4.712;2023-04-03T04:17:30;6.13;;;1.92;;
46551;SDS011;32278;51.810;4.712;2023-04-03T04:19:57;7.70;;;2.33;;
46551;SDS011;32278;51.810;4.712;2023-04-03T04:22:22;2.58;;;1.80;;
46551;SDS011;32278;51.810;4.712;2023-04-03T04:24:49;5.10;;;1.90;;
46551;SDS011;32278;51.810;4.712;2023-04-03T04:27:15;6.03;;;2.20;;
46551;SDS011;32278;51.810;4.712;2023-04-03T04:29:41;3.03;;;1.80;;
46551;SDS011;32278;51.810;4.712;2023-04-03T04:32:07;7.25;;;2.33;;
46551;SDS011;32278;51.810;4.712;2023-04-03T04:34:33;5.07;;;2.15;;
46551;SDS011;32278;51.810;4.712;2023-04-03T04:37:00;5.82;;;2.42;;
46551;SDS011;32278;51.810;4.712;2023-04-03T04:39:26;6.28;;;2.03;;
46551;SDS011;32278;51.810;4.712;2023-04-03T04:41:52;5.03;;;2.67;;
46551;SDS011;32278;51.810;4.712;2023-04-03T04:44:17;5.20;;;2.08;;
46551;SDS011;32278;51.810;4.712;2023-04-03T04:46:45;4.40;;;1.83;;
46551;SDS011;32278;51.810;4.712;2023-04-03T04:49:11;5.60;;;2.63;;
46551;SDS011;32278;51.810;4.712;2023-04-03T04:51:37;5.57;;;2.22;;
46551;SDS011;32278;51.810;4.712;2023-04-03T04:54:03;8.65;;;2.20;;
46551;SDS011;32278;51.810;4.712;2023-04-03T04:56:28;4.80;;;2.70;;
46551;SDS011;32278;51.810;4.712;2023-04-03T04:58:54;4.10;;;2.60;;
46551;SDS011;32278;51.810;4.712;2023-04-03T05:01:21;5.72;;;2.45;;
46551;SDS011;32278;51.810;4.712;2023-04-03T05:03:47;7.57;;;3.55;;
46551;SDS011;32278;51.810;4.712;2023-04-03T05:06:13;7.40;;;3.00;;
46551;SDS011;32278;51.810;4.712;2023-04-03T05:08:38;5.90;;;2.50;;
46551;SDS011;32278;51.810;4.712;2023-04-03T05:11:04;3.50;;;2.25;;
46551;SDS011;32278;51.810;4.712;2023-04-03T05:13:31;5.82;;;2.47;;
46551;SDS011;32278;51.810;4.712;2023-04-03T05:15:57;6.60;;;1.85;;
46551;SDS011;32278;51.810;4.712;2023-04-03T05:18:22;4.47;;;2.70;;
46551;SDS011;32278;51.810;4.712;2023-04-03T05:20:49;5.18;;;2.22;;
46551;SDS011;32278;51.810;4.712;2023-04-03T05:23:15;7.15;;;2.58;;
46551;SDS011;32278;51.810;4.712;2023-04-03T05:25:41;5.47;;;2.22;;
46551;SDS011;32278;51.810;4.712;2023-04-03T05:28:10;9.60;;;3.80;;
46551;SDS011;32278;51.810;4.712;2023-04-03T05:30:36;6.82;;;3.47;;
46551;SDS011;32278;51.810;4.712;2023-04-03T05:33:01;3.88;;;2.75;;
46551;SDS011;32278;51.810;4.712;2023-04-03T05:35:27;5.47;;;2.47;;
46551;SDS011;32278;51.810;4.712;2023-04-03T05:37:53;5.93;;;2.50;;
46551;SDS011;32278;51.810;4.712;2023-04-03T05:40:19;5.93;;;2.72;;
46551;SDS011;32278;51.810;4.712;2023-04-03T05:42:45;8.90;;;2.58;;
46551;SDS011;32278;51.810;4.712;2023-04-03T05:45:11;4.30;;;2.45;;
46551;SDS011;32278;51.810;4.712;2023-04-03T05:47:37;13.57;;;3.72;;
46551;SDS011;32278;51.810;4.712;2023-04-03T05:50:03;4.32;;;2.30;;
46551;SDS011;32278;51.810;4.712;2023-04-03T05:52:31;6.28;;;2.67;;
46551;SDS011;32278;51.810;4.712;2023-04-03T05:54:58;5.30;;;2.25;;
46551;SDS011;32278;51.810;4.712;2023-04-03T05:57:24;6.10;;;2.38;;
46551;SDS011;32278;51.810;4.712;2023-04-03T05:59:50;6.32;;;2.60;;
46551;SDS011;32278;51.810;4.712;2023-04-03T06:02:17;8.40;;;2.50;;
46551;SDS011;32278;51.810;4.712;2023-04-03T06:04:43;4.72;;;2.38;;
46551;SDS011;32278;51.810;4.712;2023-04-03T06:07:14;7.88;;;2.05;;
46551;SDS011;32278;51.810;4.712;2023-04-03T06:09:41;3.72;;;2.05;;
46551;SDS011;32278;51.810;4.712;2023-04-03T06:12:07;8.80;;;2.10;;
46551;SDS011;32278;51.810;4.712;2023-04-03T06:14:33;3.22;;;1.73;;
46551;SDS011;32278;51.810;4.712;2023-04-03T06:17:00;3.30;;;2.13;;
46551;SDS011;32278;51.810;4.712;2023-04-03T06:19:26;7.05;;;2.75;;
46551;SDS011;32278;51.810;4.712;2023-04-03T06:21:52;7.32;;;2.60;;
46551;SDS011;32278;51.810;4.712;2023-04-03T06:24:18;4.53;;;1.77;;
46551;SDS011;32278;51.810;4.712;2023-04-03T06:26:46;5.07;;;2.30;;
46551;SDS011;32278;51.810;4.712;2023-04-03T06:29:12;5.50;;;2.80;;
46551;SDS011;32278;51.810;4.712;2023-04-03T06:31:38;7.60;;;2.20;;
46551;SDS011;32278;51.810;4.712;2023-04-03T06:34:04;6.80;;;1.90;;
46551;SDS011;32278;51.810;4.712;2023-04-03T06:36:32;6.05;;;2.67;;
46551;SDS011;32278;51.810;4.712;2023-04-03T06:38:58;7.85;;;2.30;;
46551;SDS011;32278;51.810;4.712;2023-04-03T06:41:23;6.25;;;2.35;;
46551;SDS011;32278;51.810;4.712;2023-04-03T06:43:51;8.90;;;2.42;;
46551;SDS011;32278;51.810;4.712;2023-04-03T06:46:17;7.97;;;1.60;;
46551;SDS011;32278;51.810;4.712;2023-04-03T06:48:44;7.63;;;2.20;;
46551;SDS011;32278;51.810;4.712;2023-04-03T06:51:14;6.30;;;1.83;;
46551;SDS011;32278;51.810;4.712;2023-04-03T06:53:42;9.20;;;2.50;;
46551;SDS011;32278;51.810;4.712;2023-04-03T06:56:08;7.68;;;3.10;;
46551;SDS011;32278;51.810;4.712;2023-04-03T06:58:34;7.70;;;2.47;;
46551;SDS011;32278;51.810;4.712;2023-04-03T07:01:01;4.63;;;2.08;;
46551;SDS011;32278;51.810;4.712;2023-04-03T07:03:27;8.32;;;2.70;;
46551;SDS011;32278;51.810;4.712;2023-04-03T07:05:53;6.55;;;2.15;;
46551;SDS011;32278;51.810;4.712;2023-04-03T07:08:19;4.75;;;2.33;;
46551;SDS011;32278;51.810;4.712;2023-04-03T07:10:45;3.70;;;1.95;;
46551;SDS011;32278;51.810;4.712;2023-04-03T07:13:11;12.23;;;2.22;;
46551;SDS011;32278;51.810;4.712;2023-04-03T07:15:37;6.70;;;1.88;;
46551;SDS011;32278;51.810;4.712;2023-04-03T07:18:03;6.50;;;1.88;;
46551;SDS011;32278;51.810;4.712;2023-04-03T07:20:30;4.82;;;1.52;;
46551;SDS011;32278;51.810;4.712;2023-04-03T07:22:57;2.88;;;1.85;;
46551;SDS011;32278;51.810;4.712;2023-04-03T07:25:23;4.25;;;2.00;;
46551;SDS011;32278;51.810;4.712;2023-04-03T07:27:48;6.28;;;1.95;;
46551;SDS011;32278;51.810;4.712;2023-04-03T07:30:15;4.00;;;1.30;;
46551;SDS011;32278;51.810;4.712;2023-04-03T07:32:41;9.15;;;2.10;;
46551;SDS011;32278;51.810;4.712;2023-04-03T07:35:07;3.58;;;1.73;;
46551;SDS011;32278;51.810;4.712;2023-04-03T07:37:33;5.40;;;1.83;;
46551;SDS011;32278;51.810;4.712;2023-04-03T07:39:59;5.82;;;2.15;;
46551;SDS011;32278;51.810;4.712;2023-04-03T07:42:28;5.65;;;2.42;;
46551;SDS011;32278;51.810;4.712;2023-04-03T07:44:54;4.63;;;1.70;;
46551;SDS011;32278;51.810;4.712;2023-04-03T07:47:20;6.38;;;2.97;;
46551;SDS011;32278;51.810;4.712;2023-04-03T07:49:46;3.42;;;1.70;;
46551;SDS011;32278;51.810;4.712;2023-04-03T07:52:13;3.80;;;1.60;;
46551;SDS011;32278;51.810;4.712;2023-04-03T07:54:40;8.20;;;1.50;;
46551;SDS011;32278;51.810;4.712;2023-04-03T07:57:06;6.80;;;2.00;;
46551;SDS011;32278;51.810;4.712;2023-04-03T07:59:32;9.38;;;2.50;;
46551;SDS011;32278;51.810;4.712;2023-04-03T08:01:59;7.20;;;1.65;;
46551;SDS011;32278;51.810;4.712;2023-04-03T08:04:25;4.10;;;1.50;;
46551;SDS011;32278;51.810;4.712;2023-04-03T08:06:51;4.72;;;1.90;;
46551;SDS011;32278;51.810;4.712;2023-04-03T08:09:17;5.05;;;1.52;;
46551;SDS011;32278;51.810;4.712;2023-04-03T08:11:44;5.13;;;1.52;;
46551;SDS011;32278;51.810;4.712;2023-04-03T08:14:10;5.68;;;2.13;;
46551;SDS011;32278;51.810;4.712;2023-04-03T08:16:41;9.40;;;1.85;;
46551;SDS011;32278;51.810;4.712;2023-04-03T08:19:07;4.45;;;1.30;;
46551;SDS011;32278;51.810;4.712;2023-04-03T08:21:33;8.65;;;1.70;;
46551;SDS011;32278;51.810;4.712;2023-04-03T08:23:59;4.80;;;1.50;;
46551;SDS011;32278;51.810;4.712;2023-04-03T08:26:25;3.55;;;1.20;;
46551;SDS011;32278;51.810;4.712;2023-04-03T08:28:51;3.83;;;1.60;;
46551;SDS011;32278;51.810;4.712;2023-04-03T08:31:18;4.07;;;1.70;;
46551;SDS011;32278;51.810;4.712;2023-04-03T08:33:45;4.30;;;1.60;;
46551;SDS011;32278;51.810;4.712;2023-04-03T08:36:18;6.70;;;1.73;;
46551;SDS011;32278;51.810;4.712;2023-04-03T08:38:45;11.48;;;1.98;;
46551;SDS011;32278;51.810;4.712;2023-04-03T08:46:06;8.07;;;2.20;;
46551;SDS011;32278;51.810;4.712;2023-04-03T08:48:35;7.65;;;1.88;;
46551;SDS011;32278;51.810;4.712;2023-04-03T08:51:08;2.83;;;1.40;;
46551;SDS011;32278;51.810;4.712;2023-04-03T08:53:40;5.55;;;1.73;;
46551;SDS011;32278;51.810;4.712;2023-04-03T08:56:08;6.65;;;1.38;;
46551;SDS011;32278;51.810;4.712;2023-04-03T08:58:42;3.83;;;1.20;;
46551;SDS011;32278;51.810;4.712;2023-04-03T09:03:41;7.18;;;1.33;;
46551;SDS011;32278;51.810;4.712;2023-04-03T09:06:10;4.93;;;1.40;;
46551;SDS011;32278;51.810;4.712;2023-04-03T09:19:02;1.23;;;1.00;;
46551;SDS011;32278;51.810;4.712;2023-04-03T09:21:38;2.10;;;1.08;;
46551;SDS011;32278;51.810;4.712;2023-04-03T09:24:07;2.47;;;0.88;;
46551;SDS011;32278;51.810;4.712;2023-04-03T09:29:08;3.90;;;1.10;;
46551;SDS011;32278;51.810;4.712;2023-04-03T09:31:39;1.00;;;0.88;;
46551;SDS011;32278;51.810;4.712;2023-04-03T09:34:07;1.90;;;1.02;;
46551;SDS011;32278;51.810;4.712;2023-04-03T09:36:37;3.70;;;0.95;;
46551;SDS011;32278;51.810;4.712;2023-04-03T09:39:05;6.55;;;0.93;;
46551;SDS011;32278;51.810;4.712;2023-04-03T09:41:32;2.38;;;0.90;;
46551;SDS011;32278;51.810;4.712;2023-04-03T09:43:58;1.90;;;0.70;;
46551;SDS011;32278;51.810;4.712;2023-04-03T09:46:29;0.98;;;0.60;;
46551;SDS011;32278;51.810;4.712;2023-04-03T09:48:59;5.07;;;0.80;;
46551;SDS011;32278;51.810;4.712;2023-04-03T09:51:26;0.73;;;0.45;;
46551;SDS011;32278;51.810;4.712;2023-04-03T09:53:52;1.00;;;0.82;;
46551;SDS011;32278;51.810;4.712;2023-04-03T10:04:14;1.67;;;0.63;;
46551;SDS011;32278;51.810;4.712;2023-04-03T10:06:47;3.42;;;0.95;;
46551;SDS011;32278;51.810;4.712;2023-04-03T10:09:16;1.15;;;0.60;;
46551;SDS011;32278;51.810;4.712;2023-04-03T10:12:25;1.02;;;0.50;;
46551;SDS011;32278;51.810;4.712;2023-04-03T10:14:34;2.63;;;1.17;;
46551;SDS011;32278;51.810;4.712;2023-04-03T10:19:41;1.45;;;0.40;;
46551;SDS011;32278;51.810;4.712;2023-04-03T10:22:32;4.28;;;0.50;;
46551;SDS011;32278;51.810;4.712;2023-04-03T10:25:14;4.38;;;1.20;;
46551;SDS011;32278;51.810;4.712;2023-04-03T10:43:25;4.78;;;0.50;;
46551;SDS011;32278;51.810;4.712;2023-04-03T10:46:19;5.55;;;0.65;;
46551;SDS011;32278;51.810;4.712;2023-04-03T10:56:31;2.03;;;0.45;;
46551;SDS011;32278;51.810;4.712;2023-04-03T11:01:31;2.38;;;0.50;;
46551;SDS011;32278;51.810;4.712;2023-04-03T11:03:59;0.88;;;0.55;;
46551;SDS011;32278;51.810;4.712;2023-04-03T11:06:47;0.30;;;0.30;;
46551;SDS011;32278;51.810;4.712;2023-04-03T11:11:41;2.15;;;0.70;;
46551;SDS011;32278;51.810;4.712;2023-04-03T11:14:15;3.63;;;0.60;;
46551;SDS011;32278;51.810;4.712;2023-04-03T11:16:45;1.30;;;0.45;;
46551;SDS011;32278;51.810;4.712;2023-04-03T11:21:47;1.77;;;0.47;;
46551;SDS011;32278;51.810;4.712;2023-04-03T11:24:20;2.30;;;0.60;;
46551;SDS011;32278;51.810;4.712;2023-04-03T11:26:47;2.80;;;0.60;;
46551;SDS011;32278;51.810;4.712;2023-04-03T11:29:16;2.55;;;1.05;;
46551;SDS011;32278;51.810;4.712;2023-04-03T11:31:54;2.95;;;0.70;;
46551;SDS011;32278;51.810;4.712;2023-04-03T11:36:54;1.20;;;0.47;;
46551;SDS011;32278;51.810;4.712;2023-04-03T11:39:25;1.98;;;0.55;;
46551;SDS011;32278;51.810;4.712;2023-04-03T11:41:52;0.28;;;0.20;;
46551;SDS011;32278;51.810;4.712;2023-04-03T11:44:39;0.85;;;0.60;;
46551;SDS011;32278;51.810;4.712;2023-04-03T11:47:05;1.98;;;0.30;;
46551;SDS011;32278;51.810;4.712;2023-04-03T11:55:09;2.17;;;0.82;;
46551;SDS011;32278;51.810;4.712;2023-04-03T12:08:44;2.83;;;0.60;;
46551;SDS011;32278;51.810;4.712;2023-04-03T12:16:06;0.55;;;0.30;;
46551;SDS011;32278;51.810;4.712;2023-04-03T12:26:48;0.40;;;0.30;;
46551;SDS011;32278;51.810;4.712;2023-04-03T12:42:22;0.40;;;0.40;;
46551;SDS011;32278;51.810;4.712;2023-04-03T12:44:55;0.75;;;0.63;;
46551;SDS011;32278;51.810;4.712;2023-04-03T12:47:31;2.05;;;0.70;;
46551;SDS011;32278;51.810;4.712;2023-04-03T12:49:58;0.80;;;0.43;;
46551;SDS011;32278;51.810;4.712;2023-04-03T12:52:30;1.17;;;0.52;;
46551;SDS011;32278;51.810;4.712;2023-04-03T12:54:58;4.20;;;0.82;;
46551;SDS011;32278;51.810;4.712;2023-04-03T12:57:25;1.95;;;0.60;;
46551;SDS011;32278;51.810;4.712;2023-04-03T12:59:52;1.17;;;0.60;;
46551;SDS011;32278;51.810;4.712;2023-04-03T13:02:31;1.38;;;0.70;;
46551;SDS011;32278;51.810;4.712;2023-04-03T13:05:08;3.15;;;0.90;;
46551;SDS011;32278;51.810;4.712;2023-04-03T13:07:35;0.70;;;0.70;;
46551;SDS011;32278;51.810;4.712;2023-04-03T13:10:13;1.05;;;0.57;;
46551;SDS011;32278;51.810;4.712;2023-04-03T13:12:56;1.08;;;0.70;;
46551;SDS011;32278;51.810;4.712;2023-04-03T13:17:51;1.90;;;1.33;;
46551;SDS011;32278;51.810;4.712;2023-04-03T13:20:23;2.30;;;1.42;;
46551;SDS011;32278;51.810;4.712;2023-04-03T13:25:16;2.05;;;0.70;;
46551;SDS011;32278;51.810;4.712;2023-04-03T13:27:42;0.73;;;0.70;;
46551;SDS011;32278;51.810;4.712;2023-04-03T13:30:29;2.65;;;1.10;;
46551;SDS011;32278;51.810;4.712;2023-04-03T13:32:55;2.03;;;1.17;;
46551;SDS011;32278;51.810;4.712;2023-04-03T13:35:44;2.78;;;1.00;;
46551;SDS011;32278;51.810;4.712;2023-04-03T13:38:22;4.03;;;1.15;;
46551;SDS011;32278;51.810;4.712;2023-04-03T13:43:21;1.05;;;0.70;;
46551;SDS011;32278;51.810;4.712;2023-04-03T13:50:58;2.03;;;1.05;;
46551;SDS011;32278;51.810;4.712;2023-04-03T13:53:26;1.38;;;0.90;;
46551;SDS011;32278;51.810;4.712;2023-04-03T13:58:22;1.10;;;0.90;;
46551;SDS011;32278;51.810;4.712;2023-04-03T14:00:56;3.58;;;0.80;;
46551;SDS011;32278;51.810;4.712;2023-04-03T14:03:33;1.00;;;0.70;;
46551;SDS011;32278;51.810;4.712;2023-04-03T14:06:06;1.75;;;0.70;;
46551;SDS011;32278;51.810;4.712;2023-04-03T14:08:32;3.67;;;1.00;;
46551;SDS011;32278;51.810;4.712;2023-04-03T14:10:59;1.33;;;0.90;;
46551;SDS011;32278;51.810;4.712;2023-04-03T14:13:25;1.10;;;0.80;;
46551;SDS011;32278;51.810;4.712;2023-04-03T14:15:51;2.72;;;1.20;;
46551;SDS011;32278;51.810;4.712;2023-04-03T14:18:19;2.35;;;1.02;;
46551;SDS011;32278;51.810;4.712;2023-04-03T14:20:46;2.08;;;0.82;;
46551;SDS011;32278;51.810;4.712;2023-04-03T14:23:12;6.85;;;0.95;;
46551;SDS011;32278;51.810;4.712;2023-04-03T14:25:39;1.73;;;1.00;;
46551;SDS011;32278;51.810;4.712;2023-04-03T14:28:18;1.33;;;0.80;;
46551;SDS011;32278;51.810;4.712;2023-04-03T14:30:45;4.07;;;1.02;;
46551;SDS011;32278;51.810;4.712;2023-04-03T14:33:12;0.80;;;0.70;;
46551;SDS011;32278;51.810;4.712;2023-04-03T14:35:39;1.80;;;0.68;;
46551;SDS011;32278;51.810;4.712;2023-04-03T14:38:11;3.00;;;0.93;;
46551;SDS011;32278;51.810;4.712;2023-04-03T14:40:39;3.65;;;0.82;;
46551;SDS011;32278;51.810;4.712;2023-04-03T14:43:05;2.63;;;1.10;;
46551;SDS011;32278;51.810;4.712;2023-04-03T14:45:31;1.48;;;0.88;;
46551;SDS011;32278;51.810;4.712;2023-04-03T14:47:57;3.25;;;0.90;;
46551;SDS011;32278;51.810;4.712;2023-04-03T14:50:25;1.92;;;1.08;;
46551;SDS011;32278;51.810;4.712;2023-04-03T14:52:53;2.72;;;1.08;;
46551;SDS011;32278;51.810;4.712;2023-04-03T14:55:20;4.22;;;1.13;;
46551;SDS011;32278;51.810;4.712;2023-04-03T14:57:46;5.95;;;1.27;;
46551;SDS011;32278;51.810;4.712;2023-04-03T15:00:16;4.03;;;1.27;;
46551;SDS011;32278;51.810;4.712;2023-04-03T15:02:42;3.50;;;1.30;;
46551;SDS011;32278;51.810;4.712;2023-04-03T15:05:09;4.72;;;1.15;;
46551;SDS011;32278;51.810;4.712;2023-04-03T15:07:40;3.65;;;1.60;;
46551;SDS011;32278;51.810;4.712;2023-04-03T15:10:13;2.78;;;1.15;;
46551;SDS011;32278;51.810;4.712;2023-04-03T15:12:40;4.70;;;1.30;;
46551;SDS011;32278;51.810;4.712;2023-04-03T15:15:07;2.67;;;0.98;;
46551;SDS011;32278;51.810;4.712;2023-04-03T15:17:33;3.85;;;1.48;;
46551;SDS011;32278;51.810;4.712;2023-04-03T15:19:59;1.17;;;1.05;;
46551;SDS011;32278;51.810;4.712;2023-04-03T15:22:25;1.48;;;0.88;;
46551;SDS011;32278;51.810;4.712;2023-04-03T15:24:52;1.83;;;0.90;;
46551;SDS011;32278;51.810;4.712;2023-04-03T15:27:18;1.88;;;1.10;;
46551;SDS011;32278;51.810;4.712;2023-04-03T15:29:44;4.63;;;1.00;;
46551;SDS011;32278;51.810;4.712;2023-04-03T15:32:10;2.25;;;0.77;;
46551;SDS011;32278;51.810;4.712;2023-04-03T15:34:37;1.17;;;1.05;;
46551;SDS011;32278;51.810;4.712;2023-04-03T15:37:03;3.47;;;1.40;;
46551;SDS011;32278;51.810;4.712;2023-04-03T15:39:29;3.72;;;1.02;;
46551;SDS011;32278;51.810;4.712;2023-04-03T15:41:55;1.88;;;0.90;;
46551;SDS011;32278;51.810;4.712;2023-04-03T15:44:24;5.95;;;1.48;;
46551;SDS011;32278;51.810;4.712;2023-04-03T15:46:50;2.83;;;0.70;;
46551;SDS011;32278;51.810;4.712;2023-04-03T15:49:19;1.50;;;1.08;;
46551;SDS011;32278;51.810;4.712;2023-04-03T15:51:46;2.42;;;1.17;;
46551;SDS011;32278;51.810;4.712;2023-04-03T15:54:12;3.03;;;1.05;;
46551;SDS011;32278;51.810;4.712;2023-04-03T15:56:38;2.30;;;1.05;;
46551;SDS011;32278;51.810;4.712;2023-04-03T15:59:04;2.83;;;1.42;;
46551;SDS011;32278;51.810;4.712;2023-04-03T16:01:30;4.00;;;1.08;;
46551;SDS011;32278;51.810;4.712;2023-04-03T16:03:57;3.75;;;1.02;;
46551;SDS011;32278;51.810;4.712;2023-04-03T16:06:22;1.20;;;0.93;;
46551;SDS011;32278;51.810;4.712;2023-04-03T16:08:50;0.90;;;0.73;;
46551;SDS011;32278;51.810;4.712;2023-04-03T16:11:16;1.85;;;1.20;;
46551;SDS011;32278;51.810;4.712;2023-04-03T16:13:42;2.20;;;1.10;;
46551;SDS011;32278;51.810;4.712;2023-04-03T16:16:08;3.05;;;1.20;;
46551;SDS011;32278;51.810;4.712;2023-04-03T16:18:34;5.20;;;1.20;;
46551;SDS011;32278;51.810;4.712;2023-04-03T16:21:00;5.18;;;1.00;;
46551;SDS011;32278;51.810;4.712;2023-04-03T16:23:27;1.20;;;0.98;;
46551;SDS011;32278;51.810;4.712;2023-04-03T16:25:53;2.00;;;0.82;;
46551;SDS011;32278;51.810;4.712;2023-04-03T16:28:19;3.65;;;1.10;;
46551;SDS011;32278;51.810;4.712;2023-04-03T16:30:45;5.72;;;1.00;;
46551;SDS011;32278;51.810;4.712;2023-04-03T16:33:12;2.50;;;1.10;;
46551;SDS011;32278;51.810;4.712;2023-04-03T16:35:38;5.32;;;2.22;;
46551;SDS011;32278;51.810;4.712;2023-04-03T16:38:06;6.22;;;1.00;;
46551;SDS011;32278;51.810;4.712;2023-04-03T16:40:32;3.55;;;1.08;;
46551;SDS011;32278;51.810;4.712;2023-04-03T16:42:59;4.07;;;1.17;;
46551;SDS011;32278;51.810;4.712;2023-04-03T16:45:25;2.80;;;1.27;;
46551;SDS011;32278;51.810;4.712;2023-04-03T16:47:51;3.78;;;1.38;;
46551;SDS011;32278;51.810;4.712;2023-04-03T16:50:17;1.73;;;0.70;;
46551;SDS011;32278;51.810;4.712;2023-04-03T16:52:45;3.00;;;1.23;;
46551;SDS011;32278;51.810;4.712;2023-04-03T16:55:11;5.35;;;1.50;;
46551;SDS011;32278;51.810;4.712;2023-04-03T16:57:37;3.70;;;1.30;;
46551;SDS011;32278;51.810;4.712;2023-04-03T17:00:04;3.78;;;1.20;;
46551;SDS011;32278;51.810;4.712;2023-04-03T17:02:30;3.67;;;1.42;;